createdAt,value
2023-02-04T00:00:32.663Z,1030.62
2023-02-04T00:01:32.301Z,1030.61
2023-02-04T00:02:32.363Z,1030.59
2023-02-04T00:03:32.300Z,1030.62
2023-02-04T00:04:32.294Z,1030.67
2023-02-04T00:05:32.271Z,1030.71
2023-02-04T00:06:32.274Z,1030.66
2023-02-04T00:07:32.284Z,1030.67
2023-02-04T00:08:32.216Z,1030.68
2023-02-04T00:09:32.210Z,1030.69
2023-02-04T00:10:32.586Z,1030.68
2023-02-04T00:11:32.207Z,1030.71
2023-02-04T00:12:32.166Z,1030.68
2023-02-04T00:13:32.184Z,1030.75
2023-02-04T00:14:32.132Z,1030.71
2023-02-04T00:15:32.116Z,1030.71
2023-02-04T00:16:32.168Z,1030.79
2023-02-04T00:17:32.107Z,1030.79
2023-02-04T00:18:32.102Z,1030.82
2023-02-04T00:19:32.095Z,1030.73
2023-02-04T00:20:43.159Z,1030.73
2023-02-04T00:21:32.045Z,1030.72
2023-02-04T00:22:32.044Z,1030.69
2023-02-04T00:23:32.018Z,1030.71
2023-02-04T00:24:32.046Z,1030.69
2023-02-04T00:25:32.013Z,1030.69
2023-02-04T00:26:31.994Z,1030.71
2023-02-04T00:27:31.987Z,1030.73
2023-02-04T00:28:31.971Z,1030.73
2023-02-04T00:29:31.953Z,1030.68
2023-02-04T00:30:32.357Z,1030.72
2023-02-04T00:31:31.979Z,1030.67
2023-02-04T00:32:31.910Z,1030.69
2023-02-04T00:33:31.916Z,1030.71
2023-02-04T00:34:31.936Z,1030.73
2023-02-04T00:35:31.905Z,1030.73
2023-02-04T00:36:34.562Z,1030.75
2023-02-04T00:37:31.853Z,1030.77
2023-02-04T00:38:31.882Z,1030.82
2023-02-04T00:39:31.887Z,1030.82
2023-02-04T00:40:32.139Z,1030.77
2023-02-04T00:41:31.817Z,1030.82
2023-02-04T00:42:31.822Z,1030.87
2023-02-04T00:43:31.820Z,1030.89
2023-02-04T00:44:31.798Z,1030.85
2023-02-04T00:45:31.832Z,1030.86
2023-02-04T00:46:31.770Z,1030.85
2023-02-04T00:47:31.740Z,1030.83
2023-02-04T00:48:31.724Z,1030.79
2023-02-04T00:49:31.716Z,1030.76
2023-02-04T00:50:32.085Z,1030.74
2023-02-04T00:51:31.708Z,1030.72
2023-02-04T00:52:31.697Z,1030.74
2023-02-04T00:53:31.665Z,1030.73
2023-02-04T00:54:31.654Z,1030.72
2023-02-04T00:55:40.717Z,1030.79
2023-02-04T00:56:31.675Z,1030.78
2023-02-04T00:57:31.626Z,1030.80
2023-02-04T00:58:31.639Z,1030.80
2023-02-04T00:59:31.603Z,1030.83
2023-02-04T01:00:31.935Z,1030.83
2023-02-04T01:01:31.574Z,1030.90
2023-02-04T01:02:31.626Z,1030.91
2023-02-04T01:03:31.565Z,1030.93
2023-02-04T01:04:31.533Z,1030.98
2023-02-04T01:05:31.581Z,1030.97
2023-02-04T01:06:41.578Z,1030.97
2023-02-04T01:07:31.618Z,1030.96
2023-02-04T01:08:31.636Z,1031.01
2023-02-04T01:09:31.481Z,1030.95
2023-02-04T01:10:31.875Z,1030.99
2023-02-04T01:11:40.204Z,1030.99
2023-02-04T01:12:31.452Z,1031.04
2023-02-04T01:13:31.450Z,1031.04
2023-02-04T01:14:31.411Z,1031.04
2023-02-04T01:15:31.420Z,1031.06
2023-02-04T01:16:31.475Z,1031.04
2023-02-04T01:17:31.397Z,1031.08
2023-02-04T01:18:31.364Z,1031.06
2023-02-04T01:19:31.372Z,1031.06
2023-02-04T01:20:31.622Z,1031.10
2023-02-04T01:21:31.347Z,1031.11
2023-02-04T01:22:31.338Z,1031.11
2023-02-04T01:23:31.321Z,1031.11
2023-02-04T01:24:31.296Z,1031.15
2023-02-04T01:25:31.301Z,1031.13
2023-02-04T01:26:31.297Z,1031.12
2023-02-04T01:27:31.286Z,1031.15
2023-02-04T01:28:31.258Z,1031.16
2023-02-04T01:29:31.251Z,1031.19
2023-02-04T01:30:41.955Z,1031.21
2023-02-04T01:31:31.316Z,1031.23
2023-02-04T01:32:31.210Z,1031.27
2023-02-04T01:33:31.203Z,1031.29
2023-02-04T01:34:31.179Z,1031.28
2023-02-04T01:35:31.184Z,1031.31
2023-02-04T01:36:31.182Z,1031.34
2023-02-04T01:37:31.195Z,1031.40
2023-02-04T01:38:31.146Z,1031.38
2023-02-04T01:39:31.138Z,1031.39
2023-02-04T01:40:31.625Z,1031.40
2023-02-04T01:41:31.102Z,1031.40
2023-02-04T01:42:31.121Z,1031.41
2023-02-04T01:43:31.081Z,1031.37
2023-02-04T01:44:31.064Z,1031.40
2023-02-04T01:45:31.062Z,1031.39
2023-02-04T01:46:31.056Z,1031.40
2023-02-04T01:47:31.084Z,1031.38
2023-02-04T01:48:31.041Z,1031.43
2023-02-04T01:49:31.055Z,1031.45
2023-02-04T01:50:31.287Z,1031.47
2023-02-04T01:51:30.980Z,1031.47
2023-02-04T01:52:30.961Z,1031.45
2023-02-04T01:53:30.975Z,1031.50
2023-02-04T01:54:30.982Z,1031.51
2023-02-04T01:55:30.926Z,1031.53
2023-02-04T01:56:30.933Z,1031.52
2023-02-04T01:57:30.918Z,1031.49
2023-02-04T01:58:30.911Z,1031.48
2023-02-04T01:59:30.868Z,1031.48
2023-02-04T02:00:31.225Z,1031.46
2023-02-04T02:01:30.872Z,1031.47
2023-02-04T02:02:30.908Z,1031.47
2023-02-04T02:03:30.829Z,1031.44
2023-02-04T02:04:30.872Z,1031.42
2023-02-04T02:05:36.036Z,1031.44
2023-02-04T02:06:30.803Z,1031.39
2023-02-04T02:07:30.771Z,1031.41
2023-02-04T02:08:30.781Z,1031.40
2023-02-04T02:09:30.779Z,1031.37
2023-02-04T02:10:31.070Z,1031.41
2023-02-04T02:11:30.731Z,1031.41
2023-02-04T02:12:30.726Z,1031.41
2023-02-04T02:13:30.709Z,1031.44
2023-02-04T02:14:30.697Z,1031.38
2023-02-04T02:15:30.698Z,1031.40
2023-02-04T02:16:30.716Z,1031.40
2023-02-04T02:17:30.715Z,1031.38
2023-02-04T02:18:30.643Z,1031.43
2023-02-04T02:19:30.624Z,1031.42
2023-02-04T02:20:30.942Z,1031.49
2023-02-04T02:21:30.604Z,1031.49
2023-02-04T02:22:30.624Z,1031.50
2023-02-04T02:23:30.590Z,1031.54
2023-02-04T02:24:30.581Z,1031.64
2023-02-04T02:25:30.575Z,1031.67
2023-02-04T02:26:30.552Z,1031.71
2023-02-04T02:27:30.537Z,1031.69
2023-02-04T02:28:30.531Z,1031.69
2023-02-04T02:29:30.499Z,1031.69
2023-02-04T02:30:30.935Z,1031.75
2023-02-04T02:31:30.647Z,1031.77
2023-02-04T02:32:30.478Z,1031.77
2023-02-04T02:33:30.459Z,1031.77
2023-02-04T02:34:30.438Z,1031.81
2023-02-04T02:35:30.430Z,1031.80
2023-02-04T02:36:30.418Z,1031.81
2023-02-04T02:37:30.426Z,1031.85
2023-02-04T02:38:30.409Z,1031.84
2023-02-04T02:39:30.408Z,1031.87
2023-02-04T02:40:30.673Z,1031.86
2023-02-04T02:41:30.351Z,1031.84
2023-02-04T02:42:30.344Z,1031.83
2023-02-04T02:43:30.342Z,1031.83
2023-02-04T02:44:30.325Z,1031.81
2023-02-04T02:45:33.274Z,1031.82
2023-02-04T02:46:30.340Z,1031.82
2023-02-04T02:47:30.305Z,1031.81
2023-02-04T02:48:30.260Z,1031.81
2023-02-04T02:49:30.248Z,1031.79
2023-02-04T02:50:30.697Z,1031.77
2023-02-04T02:51:30.241Z,1031.75
2023-02-04T02:52:30.210Z,1031.76
2023-02-04T02:53:30.195Z,1031.76
2023-02-04T02:54:30.204Z,1031.80
2023-02-04T02:55:30.179Z,1031.79
2023-02-04T02:56:30.186Z,1031.82
2023-02-04T02:57:30.191Z,1031.85
2023-02-04T02:58:30.148Z,1031.87
2023-02-04T02:59:30.132Z,1031.83
2023-02-04T03:00:30.485Z,1031.84
2023-02-04T03:01:30.140Z,1031.84
2023-02-04T03:02:30.162Z,1031.84
2023-02-04T03:03:30.097Z,1031.87
2023-02-04T03:04:30.067Z,1031.92
2023-02-04T03:05:30.093Z,1031.92
2023-02-04T03:06:30.035Z,1031.85
2023-02-04T03:07:30.049Z,1031.93
2023-02-04T03:08:30.013Z,1031.95
2023-02-04T03:09:30.025Z,1031.95
2023-02-04T03:10:30.289Z,1031.97
2023-02-04T03:11:30.015Z,1032.01
2023-02-04T03:12:30.009Z,1031.98
2023-02-04T03:13:29.939Z,1031.97
2023-02-04T03:14:29.993Z,1031.97
2023-02-04T03:15:29.976Z,1031.99
2023-02-04T03:16:29.960Z,1032.00
2023-02-04T03:17:29.902Z,1032.05
2023-02-04T03:18:29.887Z,1032.01
2023-02-04T03:19:29.921Z,1032.02
2023-02-04T03:20:31.272Z,1032.02
2023-02-04T03:21:29.863Z,1032.04
2023-02-04T03:22:29.841Z,1032.07
2023-02-04T03:23:29.821Z,1032.08
2023-02-04T03:24:29.826Z,1032.06
2023-02-04T03:25:29.813Z,1032.03
2023-02-04T03:26:29.820Z,1032.05
2023-02-04T03:27:29.789Z,1032.03
2023-02-04T03:28:29.774Z,1032.06
2023-02-04T03:29:29.998Z,1032.07
2023-02-04T03:30:30.063Z,1032.05
2023-02-04T03:31:29.835Z,1032.03
2023-02-04T03:32:29.764Z,1032.06
2023-02-04T03:33:29.722Z,1032.07
2023-02-04T03:34:29.702Z,1032.11
2023-02-04T03:35:29.706Z,1032.12
2023-02-04T03:36:29.716Z,1032.15
2023-02-04T03:37:29.660Z,1032.15
2023-02-04T03:38:29.683Z,1032.15
2023-02-04T03:39:29.639Z,1032.18
2023-02-04T03:40:29.923Z,1032.16
2023-02-04T03:41:29.632Z,1032.14
2023-02-04T03:42:29.617Z,1032.18
2023-02-04T03:43:29.613Z,1032.20
2023-02-04T03:44:29.590Z,1032.22
2023-02-04T03:45:37.543Z,1032.23
2023-02-04T03:46:30.598Z,1032.25
2023-02-04T03:47:29.556Z,1032.24
2023-02-04T03:48:29.522Z,1032.26
2023-02-04T03:49:29.543Z,1032.25
2023-02-04T03:50:29.844Z,1032.20
2023-02-04T03:51:29.528Z,1032.20
2023-02-04T03:52:29.508Z,1032.19
2023-02-04T03:53:29.488Z,1032.22
2023-02-04T03:54:29.478Z,1032.19
2023-02-04T03:55:30.469Z,1032.24
2023-02-04T03:56:29.454Z,1032.21
2023-02-04T03:57:29.448Z,1032.19
2023-02-04T03:58:29.444Z,1032.16
2023-02-04T03:59:29.436Z,1032.16
2023-02-04T04:00:29.612Z,1032.14
2023-02-04T04:01:29.419Z,1032.15
2023-02-04T04:02:29.448Z,1032.16
2023-02-04T04:03:29.378Z,1032.16
2023-02-04T04:04:29.341Z,1032.20
2023-02-04T04:05:29.328Z,1032.19
2023-02-04T04:06:29.319Z,1032.18
2023-02-04T04:07:29.298Z,1032.16
2023-02-04T04:08:29.315Z,1032.14
2023-02-04T04:09:29.268Z,1032.17
2023-02-04T04:10:29.536Z,1032.22
2023-02-04T04:11:29.265Z,1032.23
2023-02-04T04:12:29.268Z,1032.23
2023-02-04T04:13:29.231Z,1032.25
2023-02-04T04:14:29.225Z,1032.26
2023-02-04T04:15:29.206Z,1032.29
2023-02-04T04:16:29.214Z,1032.29
2023-02-04T04:17:29.207Z,1032.32
2023-02-04T04:18:29.211Z,1032.36
2023-02-04T04:19:29.164Z,1032.38
2023-02-04T04:20:29.242Z,1032.42
2023-02-04T04:21:29.131Z,1032.43
2023-02-04T04:22:29.124Z,1032.43
2023-02-04T04:23:29.150Z,1032.42
2023-02-04T04:24:29.110Z,1032.43
2023-02-04T04:25:29.081Z,1032.50
2023-02-04T04:26:29.097Z,1032.48
2023-02-04T04:27:29.065Z,1032.45
2023-02-04T04:28:29.075Z,1032.46
2023-02-04T04:29:29.033Z,1032.48
2023-02-04T04:30:30.274Z,1032.51
2023-02-04T04:31:29.082Z,1032.54
2023-02-04T04:32:28.998Z,1032.50
2023-02-04T04:33:28.978Z,1032.54
2023-02-04T04:34:29.001Z,1032.54
2023-02-04T04:35:28.967Z,1032.57
2023-02-04T04:36:28.944Z,1032.60
2023-02-04T04:37:28.957Z,1032.61
2023-02-04T04:38:28.925Z,1032.61
2023-02-04T04:39:28.896Z,1032.58
2023-02-04T04:40:29.121Z,1032.60
2023-02-04T04:41:28.874Z,1032.56
2023-02-04T04:42:28.875Z,1032.58
2023-02-04T04:43:28.881Z,1032.60
2023-02-04T04:44:28.868Z,1032.55
2023-02-04T04:45:28.836Z,1032.58
2023-02-04T04:46:28.891Z,1032.58
2023-02-04T04:47:28.807Z,1032.57
2023-02-04T04:48:28.805Z,1032.59
2023-02-04T04:49:28.806Z,1032.56
2023-02-04T04:50:28.806Z,1032.58
2023-02-04T04:51:28.758Z,1032.54
2023-02-04T04:52:28.753Z,1032.56
2023-02-04T04:53:28.753Z,1032.55
2023-02-04T04:54:28.749Z,1032.52
2023-02-04T04:55:28.716Z,1032.57
2023-02-04T04:56:28.698Z,1032.60
2023-02-04T04:57:28.713Z,1032.63
2023-02-04T04:58:28.673Z,1032.66
2023-02-04T04:59:28.692Z,1032.65
2023-02-04T05:00:28.700Z,1032.67
2023-02-04T05:01:28.647Z,1032.69
2023-02-04T05:02:28.621Z,1032.66
2023-02-04T05:03:28.607Z,1032.70
2023-02-04T05:04:28.626Z,1032.67
2023-02-04T05:05:40.543Z,1032.70
2023-02-04T05:06:28.615Z,1032.76
2023-02-04T05:07:28.582Z,1032.75
2023-02-04T05:08:28.589Z,1032.77
2023-02-04T05:09:28.552Z,1032.81
2023-02-04T05:10:28.539Z,1032.84
2023-02-04T05:11:28.544Z,1032.82
2023-02-04T05:12:28.503Z,1032.84
2023-02-04T05:13:28.500Z,1032.85
2023-02-04T05:14:28.483Z,1032.83
2023-02-04T05:15:28.502Z,1032.88
2023-02-04T05:16:28.527Z,1032.84
2023-02-04T05:17:28.771Z,1032.86
2023-02-04T05:18:28.444Z,1032.88
2023-02-04T05:19:28.470Z,1032.89
2023-02-04T05:20:28.429Z,1032.92
2023-02-04T05:21:28.437Z,1032.93
2023-02-04T05:22:28.386Z,1032.99
2023-02-04T05:23:28.378Z,1032.97
2023-02-04T05:24:28.424Z,1033.00
2023-02-04T05:25:28.357Z,1032.99
2023-02-04T05:26:30.721Z,1033.02
2023-02-04T05:27:28.380Z,1032.96
2023-02-04T05:28:28.316Z,1032.99
2023-02-04T05:29:28.350Z,1032.96
2023-02-04T05:30:28.349Z,1033.00
2023-02-04T05:31:28.302Z,1033.01
2023-02-04T05:32:28.330Z,1033.05
2023-02-04T05:33:28.257Z,1033.04
2023-02-04T05:34:28.273Z,1033.03
2023-02-04T05:35:28.260Z,1033.06
2023-02-04T05:36:28.249Z,1033.02
2023-02-04T05:37:28.219Z,1033.06
2023-02-04T05:38:28.200Z,1033.05
2023-02-04T05:39:28.184Z,1033.07
2023-02-04T05:40:30.916Z,1033.10
2023-02-04T05:41:28.156Z,1033.12
2023-02-04T05:42:28.248Z,1033.11
2023-02-04T05:43:28.150Z,1033.12
2023-02-04T05:44:28.143Z,1033.10
2023-02-04T05:45:28.133Z,1033.15
2023-02-04T05:46:28.124Z,1033.14
2023-02-04T05:47:28.102Z,1033.19
2023-02-04T05:48:28.091Z,1033.20
2023-02-04T05:49:28.088Z,1033.22
2023-02-04T05:50:28.087Z,1033.21
2023-02-04T05:51:28.039Z,1033.20
2023-02-04T05:52:28.035Z,1033.23
2023-02-04T05:53:28.020Z,1033.27
2023-02-04T05:54:28.002Z,1033.29
2023-02-04T05:55:28.036Z,1033.31
2023-02-04T05:56:28.003Z,1033.36
2023-02-04T05:57:27.985Z,1033.35
2023-02-04T05:58:27.960Z,1033.38
2023-02-04T05:59:27.959Z,1033.36
2023-02-04T06:00:27.929Z,1033.37
2023-02-04T06:01:27.930Z,1033.34
2023-02-04T06:02:27.926Z,1033.40
2023-02-04T06:03:27.936Z,1033.37
2023-02-04T06:04:27.969Z,1033.36
2023-02-04T06:05:27.910Z,1033.39
2023-02-04T06:06:27.853Z,1033.41
2023-02-04T06:07:27.864Z,1033.39
2023-02-04T06:08:27.833Z,1033.39
2023-02-04T06:09:27.867Z,1033.44
2023-02-04T06:10:27.831Z,1033.44
2023-02-04T06:11:27.815Z,1033.47
2023-02-04T06:12:27.816Z,1033.47
2023-02-04T06:13:27.804Z,1033.48
2023-02-04T06:14:27.763Z,1033.48
2023-02-04T06:15:27.763Z,1033.50
2023-02-04T06:16:27.766Z,1033.50
2023-02-04T06:17:27.735Z,1033.47
2023-02-04T06:18:27.735Z,1033.44
2023-02-04T06:19:27.723Z,1033.43
2023-02-04T06:20:29.161Z,1033.47
2023-02-04T06:21:27.684Z,1033.49
2023-02-04T06:22:27.686Z,1033.47
2023-02-04T06:23:27.665Z,1033.48
2023-02-04T06:24:27.659Z,1033.46
2023-02-04T06:25:27.670Z,1033.49
2023-02-04T06:26:27.636Z,1033.52
2023-02-04T06:27:27.622Z,1033.51
2023-02-04T06:28:27.595Z,1033.57
2023-02-04T06:29:27.593Z,1033.51
2023-02-04T06:30:27.640Z,1033.58
2023-02-04T06:31:27.691Z,1033.56
2023-02-04T06:32:27.570Z,1033.54
2023-02-04T06:33:27.570Z,1033.54
2023-02-04T06:34:27.540Z,1033.56
2023-02-04T06:35:27.522Z,1033.56
2023-02-04T06:36:27.489Z,1033.56
2023-02-04T06:37:27.511Z,1033.59
2023-02-04T06:38:27.503Z,1033.56
2023-02-04T06:39:27.509Z,1033.53
2023-02-04T06:40:27.458Z,1033.51
2023-02-04T06:41:27.450Z,1033.51
2023-02-04T06:42:27.416Z,1033.55
2023-02-04T06:43:27.421Z,1033.55
2023-02-04T06:44:27.450Z,1033.61
2023-02-04T06:45:27.401Z,1033.60
2023-02-04T06:46:27.492Z,1033.54
2023-02-04T06:47:27.380Z,1033.56
2023-02-04T06:48:27.361Z,1033.60
2023-02-04T06:49:27.358Z,1033.63
2023-02-04T06:50:27.359Z,1033.58
2023-02-04T06:51:27.333Z,1033.59
2023-02-04T06:52:27.321Z,1033.59
2023-02-04T06:53:27.312Z,1033.62
2023-02-04T06:54:27.287Z,1033.64
2023-02-04T06:55:30.502Z,1033.66
2023-02-04T06:56:27.258Z,1033.66
2023-02-04T06:57:27.286Z,1033.69
2023-02-04T06:58:27.262Z,1033.68
2023-02-04T06:59:27.257Z,1033.71
2023-02-04T07:00:27.223Z,1033.75
2023-02-04T07:01:27.340Z,1033.76
2023-02-04T07:02:27.271Z,1033.76
2023-02-04T07:03:27.220Z,1033.76
2023-02-04T07:04:27.153Z,1033.78
2023-02-04T07:05:27.136Z,1033.79
2023-02-04T07:06:27.144Z,1033.79
2023-02-04T07:07:27.156Z,1033.81
2023-02-04T07:08:27.119Z,1033.80
2023-02-04T07:09:27.113Z,1033.81
2023-02-04T07:11:23.419Z,1033.80
2023-02-04T07:12:23.426Z,1033.85
2023-02-04T07:13:23.386Z,1033.84
2023-02-04T07:14:23.379Z,1033.85
2023-02-04T07:15:23.358Z,1033.85
2023-02-04T07:16:23.364Z,1033.86
2023-02-04T07:17:23.333Z,1033.83
2023-02-04T07:18:23.381Z,1033.84
2023-02-04T07:19:23.312Z,1033.88
2023-02-04T07:20:23.328Z,1033.89
2023-02-04T07:21:23.293Z,1033.87
2023-02-04T07:22:23.288Z,1033.87
2023-02-04T07:23:23.267Z,1033.89
2023-02-04T07:24:23.240Z,1033.90
2023-02-04T07:25:23.284Z,1033.87
2023-02-04T07:26:23.243Z,1033.91
2023-02-04T07:27:23.234Z,1033.96
2023-02-04T07:28:23.214Z,1033.95
2023-02-04T07:29:26.172Z,1033.90
2023-02-04T07:30:23.178Z,1033.96
2023-02-04T07:31:23.263Z,1034.00
2023-02-04T07:32:23.163Z,1033.97
2023-02-04T07:33:23.150Z,1034.04
2023-02-04T07:34:23.166Z,1034.05
2023-02-04T07:35:23.140Z,1034.03
2023-02-04T07:36:23.135Z,1034.06
2023-02-04T07:37:23.082Z,1034.08
2023-02-04T07:38:23.099Z,1034.07
2023-02-04T07:39:23.072Z,1034.08
2023-02-04T07:40:23.057Z,1034.05
2023-02-04T07:41:23.052Z,1034.08
2023-02-04T07:42:23.028Z,1034.07
2023-02-04T07:43:23.006Z,1034.09
2023-02-04T07:44:23.025Z,1034.12
2023-02-04T07:45:22.981Z,1034.13
2023-02-04T07:46:23.039Z,1034.12
2023-02-04T07:47:22.976Z,1034.12
2023-02-04T07:48:22.950Z,1034.10
2023-02-04T07:49:22.954Z,1034.08
2023-02-04T07:50:22.943Z,1034.14
2023-02-04T07:51:22.908Z,1034.12
2023-02-04T07:52:22.921Z,1034.16
2023-02-04T07:53:22.873Z,1034.17
2023-02-04T07:54:22.867Z,1034.18
2023-02-04T07:55:22.861Z,1034.22
2023-02-04T07:56:22.876Z,1034.16
2023-02-04T07:57:22.822Z,1034.22
2023-02-04T07:58:22.827Z,1034.23
2023-02-04T07:59:22.807Z,1034.22
2023-02-04T08:00:22.799Z,1034.22
2023-02-04T08:01:22.801Z,1034.21
2023-02-04T08:02:22.883Z,1034.21
2023-02-04T08:03:22.771Z,1034.22
2023-02-04T08:04:22.768Z,1034.20
2023-02-04T08:05:22.743Z,1034.24
2023-02-04T08:06:22.715Z,1034.24
2023-02-04T08:07:22.716Z,1034.25
2023-02-04T08:08:22.756Z,1034.28
2023-02-04T08:09:22.678Z,1034.25
2023-02-04T08:10:22.668Z,1034.25
2023-02-04T08:11:22.643Z,1034.28
2023-02-04T08:12:22.664Z,1034.34
2023-02-04T08:13:22.634Z,1034.32
2023-02-04T08:14:22.650Z,1034.35
2023-02-04T08:15:22.620Z,1034.34
2023-02-04T08:16:22.661Z,1034.41
2023-02-04T08:17:22.582Z,1034.40
2023-02-04T08:18:22.581Z,1034.41
2023-02-04T08:19:22.581Z,1034.46
2023-02-04T08:20:22.568Z,1034.43
2023-02-04T08:21:22.549Z,1034.44
2023-02-04T08:22:22.586Z,1034.47
2023-02-04T08:23:22.509Z,1034.48
2023-02-04T08:24:22.599Z,1034.53
2023-02-04T08:25:22.491Z,1034.55
2023-02-04T08:26:22.509Z,1034.61
2023-02-04T08:27:22.448Z,1034.58
2023-02-04T08:28:22.443Z,1034.58
2023-02-04T08:29:22.440Z,1034.55
2023-02-04T08:30:22.400Z,1034.56
2023-02-04T08:31:22.470Z,1034.61
2023-02-04T08:32:22.405Z,1034.60
2023-02-04T08:33:22.410Z,1034.62
2023-02-04T08:34:22.406Z,1034.61
2023-02-04T08:35:22.353Z,1034.64
2023-02-04T08:36:22.357Z,1034.63
2023-02-04T08:37:22.376Z,1034.65
2023-02-04T08:38:22.305Z,1034.65
2023-02-04T08:39:22.308Z,1034.64
2023-02-04T08:40:22.316Z,1034.64
2023-02-04T08:41:22.264Z,1034.71
2023-02-04T08:42:22.438Z,1034.69
2023-02-04T08:43:22.238Z,1034.72
2023-02-04T08:44:22.244Z,1034.72
2023-02-04T08:45:22.236Z,1034.75
2023-02-04T08:46:22.257Z,1034.78
2023-02-04T08:47:22.263Z,1034.80
2023-02-04T08:48:22.283Z,1034.83
2023-02-04T08:49:22.179Z,1034.88
2023-02-04T08:50:22.209Z,1034.91
2023-02-04T08:51:22.172Z,1034.92
2023-02-04T08:52:22.153Z,1034.92
2023-02-04T08:53:22.137Z,1034.97
2023-02-04T08:54:22.140Z,1034.95
2023-02-04T08:55:22.154Z,1034.94
2023-02-04T08:56:22.121Z,1035.00
2023-02-04T08:57:22.098Z,1034.97
2023-02-04T08:58:22.075Z,1035.00
2023-02-04T08:59:22.074Z,1034.98
2023-02-04T09:00:22.065Z,1034.96
2023-02-04T09:01:22.132Z,1034.92
2023-02-04T09:02:22.061Z,1034.95
2023-02-04T09:03:22.072Z,1034.92
2023-02-04T09:04:22.023Z,1034.89
2023-02-04T09:05:21.995Z,1034.90
2023-02-04T09:06:22.008Z,1034.91
2023-02-04T09:07:22.013Z,1034.89
2023-02-04T09:08:21.976Z,1034.88
2023-02-04T09:09:23.320Z,1034.86
2023-02-04T09:10:22.155Z,1034.89
2023-02-04T09:11:21.947Z,1034.88
2023-02-04T09:12:21.929Z,1034.94
2023-02-04T09:13:21.963Z,1034.98
2023-02-04T09:14:21.888Z,1034.98
2023-02-04T09:15:21.873Z,1035.01
2023-02-04T09:16:21.960Z,1035.07
2023-02-04T09:17:21.927Z,1035.08
2023-02-04T09:18:21.853Z,1035.04
2023-02-04T09:19:21.864Z,1035.07
2023-02-04T09:20:29.949Z,1035.05
2023-02-04T09:21:30.334Z,1035.06
2023-02-04T09:22:29.304Z,1035.06
2023-02-04T09:23:30.487Z,1035.07
2023-02-04T09:24:29.282Z,1035.07
2023-02-04T09:25:29.264Z,1035.11
2023-02-04T09:26:29.252Z,1035.13
2023-02-04T09:27:21.711Z,1035.13
2023-02-04T09:28:29.287Z,1035.10
2023-02-04T09:29:21.768Z,1035.10
2023-02-04T09:30:21.703Z,1035.05
2023-02-04T09:31:21.815Z,1035.08
2023-02-04T09:32:24.401Z,1035.12
2023-02-04T09:33:21.648Z,1035.12
2023-02-04T09:34:21.705Z,1035.13
2023-02-04T09:35:21.633Z,1035.15
2023-02-04T09:36:21.624Z,1035.13
2023-02-04T09:37:21.738Z,1035.11
2023-02-04T09:38:21.618Z,1035.12
2023-02-04T09:39:21.589Z,1035.10
2023-02-04T09:40:21.617Z,1035.13
2023-02-04T09:41:21.585Z,1035.14
2023-02-04T09:42:21.544Z,1035.15
2023-02-04T09:43:21.597Z,1035.15
2023-02-04T09:44:21.568Z,1035.17
2023-02-04T09:45:21.531Z,1035.16
2023-02-04T09:46:21.556Z,1035.19
2023-02-04T09:47:21.546Z,1035.19
2023-02-04T09:48:21.464Z,1035.24
2023-02-04T09:49:21.487Z,1035.24
2023-02-04T09:50:21.446Z,1035.22
2023-02-04T09:51:21.528Z,1035.23
2023-02-04T09:52:21.430Z,1035.27
2023-02-04T09:53:21.443Z,1035.29
2023-02-04T09:54:21.383Z,1035.31
2023-02-04T09:55:21.368Z,1035.31
2023-02-04T09:56:21.431Z,1035.38
2023-02-04T09:57:21.413Z,1035.31
2023-02-04T09:58:21.346Z,1035.35
2023-02-04T09:59:21.340Z,1035.31
2023-02-04T10:00:21.337Z,1035.37
2023-02-04T10:01:21.410Z,1035.33
2023-02-04T10:02:21.275Z,1035.31
2023-02-04T10:03:21.308Z,1035.30
2023-02-04T10:04:21.269Z,1035.33
2023-02-04T10:05:22.714Z,1035.30
2023-02-04T10:06:21.224Z,1035.33
2023-02-04T10:07:21.215Z,1035.34
2023-02-04T10:08:21.206Z,1035.34
2023-02-04T10:09:21.165Z,1035.27
2023-02-04T10:10:21.202Z,1035.30
2023-02-04T10:11:21.137Z,1035.31
2023-02-04T10:12:21.144Z,1035.33
2023-02-04T10:13:21.109Z,1035.32
2023-02-04T10:14:21.097Z,1035.30
2023-02-04T10:15:21.079Z,1035.33
2023-02-04T10:16:21.123Z,1035.28
2023-02-04T10:17:21.067Z,1035.28
2023-02-04T10:18:21.160Z,1035.28
2023-02-04T10:19:21.022Z,1035.26
2023-02-04T10:20:21.074Z,1035.28
2023-02-04T10:21:21.008Z,1035.29
2023-02-04T10:22:21.059Z,1035.31
2023-02-04T10:23:20.956Z,1035.32
2023-02-04T10:24:20.990Z,1035.30
2023-02-04T10:25:20.944Z,1035.33
2023-02-04T10:26:20.955Z,1035.30
2023-02-04T10:27:20.947Z,1035.32
2023-02-04T10:28:20.915Z,1035.34
2023-02-04T10:29:20.933Z,1035.32
2023-02-04T10:30:20.887Z,1035.37
2023-02-04T10:31:21.010Z,1035.38
2023-02-04T10:32:20.849Z,1035.38
2023-02-04T10:33:20.837Z,1035.40
2023-02-04T10:34:20.815Z,1035.44
2023-02-04T10:35:20.805Z,1035.45
2023-02-04T10:36:20.784Z,1035.43
2023-02-04T10:37:20.827Z,1035.48
2023-02-04T10:38:20.769Z,1035.43
2023-02-04T10:39:20.812Z,1035.45
2023-02-04T10:40:20.784Z,1035.46
2023-02-04T10:41:20.736Z,1035.50
2023-02-04T10:42:20.753Z,1035.50
2023-02-04T10:43:20.759Z,1035.47
2023-02-04T10:44:20.670Z,1035.43
2023-02-04T10:45:20.688Z,1035.47
2023-02-04T10:46:20.745Z,1035.48
2023-02-04T10:47:20.696Z,1035.46
2023-02-04T10:48:20.635Z,1035.48
2023-02-04T10:49:20.600Z,1035.43
2023-02-04T10:50:20.587Z,1035.42
2023-02-04T10:51:20.580Z,1035.43
2023-02-04T10:52:20.588Z,1035.49
2023-02-04T10:53:20.552Z,1035.44
2023-02-04T10:54:20.597Z,1035.44
2023-02-04T10:55:20.529Z,1035.42
2023-02-04T10:56:20.519Z,1035.45
2023-02-04T10:57:21.815Z,1035.45
2023-02-04T10:58:20.512Z,1035.44
2023-02-04T10:59:20.454Z,1035.43
2023-02-04T11:00:20.602Z,1035.42
2023-02-04T11:01:20.459Z,1035.39
2023-02-04T11:02:20.447Z,1035.41
2023-02-04T11:03:20.470Z,1035.41
2023-02-04T11:04:20.392Z,1035.42
2023-02-04T11:05:27.902Z,1035.41
2023-02-04T11:06:20.350Z,1035.40
2023-02-04T11:07:20.361Z,1035.42
2023-02-04T11:08:20.330Z,1035.45
2023-02-04T11:09:20.317Z,1035.40
2023-02-04T11:10:20.295Z,1035.40
2023-02-04T11:11:27.875Z,1035.44
2023-02-04T11:12:20.273Z,1035.40
2023-02-04T11:13:20.256Z,1035.44
2023-02-04T11:14:20.252Z,1035.45
2023-02-04T11:15:20.231Z,1035.43
2023-02-04T11:16:20.263Z,1035.43
2023-02-04T11:17:20.209Z,1035.44
2023-02-04T11:18:20.198Z,1035.41
2023-02-04T11:19:20.268Z,1035.38
2023-02-04T11:20:20.164Z,1035.35
2023-02-04T11:21:20.203Z,1035.33
2023-02-04T11:22:20.136Z,1035.35
2023-02-04T11:23:20.131Z,1035.32
2023-02-04T11:24:20.114Z,1035.31
2023-02-04T11:25:20.137Z,1035.33
2023-02-04T11:26:20.077Z,1035.36
2023-02-04T11:27:20.081Z,1035.38
2023-02-04T11:28:20.039Z,1035.36
2023-02-04T11:29:20.058Z,1035.37
2023-02-04T11:30:20.028Z,1035.32
2023-02-04T11:31:20.197Z,1035.34
2023-02-04T11:32:21.613Z,1035.33
2023-02-04T11:33:19.995Z,1035.33
2023-02-04T11:34:20.015Z,1035.39
2023-02-04T11:35:19.965Z,1035.38
2023-02-04T11:36:19.929Z,1035.36
2023-02-04T11:37:19.940Z,1035.37
2023-02-04T11:38:19.948Z,1035.39
2023-02-04T11:39:19.925Z,1035.38
2023-02-04T11:40:19.884Z,1035.37
2023-02-04T11:41:19.891Z,1035.36
2023-02-04T11:42:19.897Z,1035.37
2023-02-04T11:43:21.695Z,1035.38
2023-02-04T11:44:19.833Z,1035.37
2023-02-04T11:45:19.799Z,1035.41
2023-02-04T11:46:19.845Z,1035.40
2023-02-04T11:47:19.858Z,1035.44
2023-02-04T11:48:19.788Z,1035.42
2023-02-04T11:49:19.760Z,1035.46
2023-02-04T11:50:19.742Z,1035.45
2023-02-04T11:51:19.713Z,1035.48
2023-02-04T11:52:19.698Z,1035.50
2023-02-04T11:53:19.708Z,1035.47
2023-02-04T11:54:19.713Z,1035.47
2023-02-04T11:55:19.683Z,1035.50
2023-02-04T11:56:19.632Z,1035.49
2023-02-04T11:57:19.634Z,1035.48
2023-02-04T11:58:19.609Z,1035.47
2023-02-04T11:59:19.639Z,1035.47
2023-02-04T12:00:19.671Z,1035.46
2023-02-04T12:01:19.572Z,1035.38
2023-02-04T12:02:19.601Z,1035.40
2023-02-04T12:03:19.690Z,1035.40
2023-02-04T12:04:19.556Z,1035.36
2023-02-04T12:05:19.570Z,1035.43
2023-02-04T12:06:19.500Z,1035.39